Overview Statistics Trail Chart Weather Telemetry Raw packets
 

This is the latest recevied weather packets stored in our database for station/object HS3MXC-2. If no packets are shown the sender has not sent any weather packets the latest 10 day(s).

<< 21 22 23 24 25 26 27 >>
Time Temp. Humidity Pressure Rain* Wind** Luminosity Snow
1777517503 25.56° C 49% 999.4 hPa - - - -
1777517193 25.56° C 50% 999.5 hPa - - - -
1777516882 25.56° C 51% 999.5 hPa - - - -
1777516576 26.11° C 53% 999.5 hPa - - - -
1777516267 26.11° C 54% 999.6 hPa - - - -
1777515959 26.11° C 51% 999.5 hPa - - - -
1777515329 25.56° C 49% 999.4 hPa - - - -
1777515002 26.11° C 51% 999.4 hPa - - - -
1777514689 26.11° C 56% 999.6 hPa - - - -
1777514381 26.67° C 60% 999.4 hPa - - - -
1777514074 28.33° C 67% 999.4 hPa - - - -
1777513764 28.33° C 70% 999.5 hPa - - - -
1777513151 27.78° C 70% 999.7 hPa - - - -
1777512844 27.78° C 70% 999.7 hPa - - - -
1777512537 28.33° C 70% 999.7 hPa - - - -
1777512222 27.78° C 70% 999.5 hPa - - - -
1777511916 27.78° C 70% 999.6 hPa - - - -
1777511609 27.78° C 70% 999.7 hPa - - - -
1777511302 27.78° C 69% 999.4 hPa - - - -
1777510995 27.78° C 70% 999.3 hPa - - - -
1777510687 27.78° C 69% 999.1 hPa - - - -
1777510381 27.78° C 69% 998.9 hPa - - - -
1777510074 27.78° C 69% 998.8 hPa - - - -
1777509767 27.78° C 70% 998.8 hPa - - - -
1777509151 27.78° C 70% 999 hPa - - - -

* Rain since midnight (hover to see other rain measurements)
** Current wind speed in m/s (hover to see current wind gust speed)